createdAt,value
2019-03-31T00:00:37.068Z,6.63
2019-03-31T00:03:08.377Z,5.53
2019-03-31T00:05:41.308Z,5.40
2019-03-31T00:08:13.120Z,5.70
2019-03-31T00:10:44.636Z,5.37
2019-03-31T00:13:16.042Z,5.57
2019-03-31T00:15:47.621Z,5.47
2019-03-31T00:18:18.814Z,5.20
2019-03-31T00:20:53.718Z,6.07
2019-03-31T00:23:25.126Z,5.23
2019-03-31T00:25:56.444Z,4.80
2019-03-31T00:28:28.423Z,5.33
2019-03-31T00:31:01.449Z,5.33
2019-03-31T00:33:32.576Z,5.47
2019-03-31T00:36:04.045Z,5.43
2019-03-31T00:38:35.282Z,4.27
2019-03-31T00:41:06.584Z,5.10
2019-03-31T00:43:38.135Z,4.63
2019-03-31T00:46:09.805Z,5.30
2019-03-31T00:48:41.186Z,4.50
2019-03-31T00:51:12.944Z,5.03
2019-03-31T00:53:44.067Z,4.53
2019-03-31T00:56:17.231Z,4.43
2019-03-31T00:58:48.469Z,5.07
2019-03-31T01:01:40.012Z,3.90
2019-03-31T01:04:12.811Z,4.77
2019-03-31T01:06:45.865Z,4.60
2019-03-31T01:09:25.942Z,4.53
2019-03-31T01:11:58.264Z,4.63
2019-03-31T01:14:31.330Z,4.53
2019-03-31T01:17:03.107Z,4.43
2019-03-31T01:19:36.207Z,4.43
2019-03-31T01:22:07.662Z,4.23
2019-03-31T01:24:39.328Z,5.13
2019-03-31T01:27:12.973Z,4.03
2019-03-31T01:29:44.640Z,5.10
2019-03-31T01:32:15.889Z,4.43
2019-03-31T01:34:47.417Z,4.23
2019-03-31T01:37:20.276Z,4.43
2019-03-31T01:39:51.940Z,4.20
2019-03-31T01:42:23.269Z,4.60
2019-03-31T01:44:57.128Z,4.57
2019-03-31T01:47:28.822Z,4.63
2019-03-31T01:50:00.398Z,4.60
2019-03-31T01:52:31.643Z,4.63
2019-03-31T01:55:03.889Z,5.57
2019-03-31T01:57:35.318Z,4.57
2019-03-31T02:00:10.557Z,4.67
2019-03-31T02:02:41.539Z,4.67
2019-03-31T02:05:12.615Z,4.93
2019-03-31T02:07:45.072Z,4.70
2019-03-31T02:10:16.233Z,4.90
2019-03-31T02:12:47.966Z,4.80
2019-03-31T02:15:20.003Z,4.73
2019-03-31T02:17:51.434Z,4.67
2019-03-31T02:20:22.491Z,5.57
2019-03-31T02:22:54.049Z,4.20
2019-03-31T02:25:26.494Z,5.03
2019-03-31T02:27:57.998Z,4.50
2019-03-31T02:30:29.326Z,4.97
2019-03-31T02:33:00.522Z,5.00
2019-03-31T02:35:31.614Z,4.30
2019-03-31T02:38:02.968Z,4.80
2019-03-31T02:40:34.790Z,4.63
2019-03-31T02:43:06.152Z,4.57
2019-03-31T02:45:37.814Z,4.83
2019-03-31T02:48:08.937Z,4.80
2019-03-31T02:50:50.715Z,4.77
2019-03-31T02:53:22.451Z,4.23
2019-03-31T02:55:56.317Z,4.33
2019-03-31T02:58:29.236Z,4.63
2019-03-31T03:01:00.713Z,4.10
2019-03-31T03:03:33.544Z,4.07
2019-03-31T03:06:06.922Z,4.03
2019-03-31T03:08:38.796Z,4.53
2019-03-31T03:11:10.958Z,4.33
2019-03-31T03:13:43.755Z,4.50
2019-03-31T03:16:24.389Z,4.47
2019-03-31T03:18:58.417Z,4.40
2019-03-31T03:21:29.680Z,4.37
2019-03-31T03:24:00.940Z,4.23
2019-03-31T03:26:32.094Z,4.53
2019-03-31T03:29:03.324Z,4.17
2019-03-31T03:31:34.545Z,4.90
2019-03-31T03:34:05.922Z,3.80
2019-03-31T03:36:37.627Z,4.23
2019-03-31T03:39:09.756Z,4.60
2019-03-31T03:41:41.455Z,4.03
2019-03-31T03:44:12.924Z,4.37
2019-03-31T03:46:44.674Z,4.77
2019-03-31T03:49:16.415Z,4.40
2019-03-31T03:51:47.858Z,4.70
2019-03-31T03:54:18.965Z,5.07
2019-03-31T03:56:50.469Z,4.53
2019-03-31T03:59:21.954Z,4.20
2019-03-31T04:01:53.716Z,4.90
2019-03-31T04:04:24.965Z,4.53
2019-03-31T04:06:56.690Z,4.87
2019-03-31T04:09:28.299Z,4.43
2019-03-31T04:12:02.656Z,4.93
2019-03-31T04:14:34.125Z,4.47
2019-03-31T04:17:05.344Z,4.37
2019-03-31T04:19:36.900Z,4.63
2019-03-31T04:22:08.540Z,4.70
2019-03-31T04:24:39.934Z,4.80
2019-03-31T04:27:11.379Z,4.30
2019-03-31T04:29:43.093Z,4.87
2019-03-31T04:32:14.465Z,5.03
2019-03-31T04:34:45.779Z,4.87
2019-03-31T04:37:16.883Z,4.63
2019-03-31T04:39:48.248Z,4.77
2019-03-31T04:42:19.519Z,5.00
2019-03-31T04:44:52.221Z,4.70
2019-03-31T04:47:23.885Z,4.33
2019-03-31T04:49:54.989Z,4.33
2019-03-31T04:52:26.519Z,4.67
2019-03-31T04:54:57.786Z,4.80
2019-03-31T04:57:29.199Z,4.80
2019-03-31T05:00:00.506Z,4.60
2019-03-31T05:02:31.729Z,4.27
2019-03-31T05:05:04.669Z,5.43
2019-03-31T05:07:35.952Z,5.00
2019-03-31T05:10:07.232Z,5.47
2019-03-31T05:12:38.732Z,5.13
2019-03-31T05:15:10.390Z,5.30
2019-03-31T05:17:41.625Z,5.57
2019-03-31T05:20:12.821Z,5.30
2019-03-31T05:22:44.381Z,5.47
2019-03-31T05:25:17.552Z,5.27
2019-03-31T05:27:48.584Z,5.17
2019-03-31T05:30:19.785Z,5.77
2019-03-31T05:32:51.164Z,5.60
2019-03-31T05:35:22.295Z,4.57
2019-03-31T05:37:53.569Z,5.23
2019-03-31T05:40:24.827Z,4.73
2019-03-31T05:42:56.160Z,5.37
2019-03-31T05:45:27.501Z,5.37
2019-03-31T05:47:58.691Z,5.33
2019-03-31T05:50:30.097Z,4.47
2019-03-31T05:53:01.448Z,4.30
2019-03-31T05:55:32.497Z,4.27
2019-03-31T05:58:03.893Z,4.60
2019-03-31T06:00:42.235Z,3.60
2019-03-31T06:03:13.647Z,4.03
2019-03-31T06:05:44.925Z,4.20
2019-03-31T06:08:16.787Z,3.70
2019-03-31T06:10:48.465Z,4.13
2019-03-31T06:13:20.445Z,4.17
2019-03-31T06:15:51.724Z,5.00
2019-03-31T06:18:23.545Z,4.00
2019-03-31T06:20:55.012Z,4.40
2019-03-31T06:23:26.307Z,4.87
2019-03-31T06:25:57.488Z,4.13
2019-03-31T06:28:28.617Z,4.70
2019-03-31T06:30:59.864Z,5.83
2019-03-31T06:33:31.002Z,5.83
2019-03-31T06:36:02.115Z,6.03
2019-03-31T06:38:33.390Z,6.00
2019-03-31T06:41:04.623Z,5.40
2019-03-31T06:43:36.821Z,4.80
2019-03-31T06:46:08.462Z,5.47
2019-03-31T06:48:39.848Z,5.03
2019-03-31T06:51:11.138Z,5.90
2019-03-31T06:53:42.347Z,5.80
2019-03-31T06:56:14.025Z,5.53
2019-03-31T06:58:45.402Z,5.07
2019-03-31T07:01:16.635Z,5.10
2019-03-31T07:03:47.911Z,4.60
2019-03-31T07:06:19.153Z,4.17
2019-03-31T07:08:50.819Z,4.80
2019-03-31T07:11:22.289Z,5.30
2019-03-31T07:13:53.333Z,4.73
2019-03-31T07:16:24.942Z,4.97
2019-03-31T07:18:56.199Z,4.00
2019-03-31T07:21:27.416Z,4.87
2019-03-31T07:23:58.624Z,4.50
2019-03-31T07:26:29.989Z,4.77
2019-03-31T07:29:01.088Z,4.20
2019-03-31T07:31:32.533Z,4.63
2019-03-31T07:34:05.780Z,4.47
2019-03-31T07:36:37.004Z,4.60
2019-03-31T07:39:08.678Z,3.80
2019-03-31T07:41:40.219Z,4.70
2019-03-31T07:44:15.212Z,4.10
2019-03-31T07:46:44.871Z,3.93
2019-03-31T07:49:16.176Z,5.17
2019-03-31T07:51:47.713Z,4.73
2019-03-31T07:54:19.228Z,3.73
2019-03-31T07:56:51.481Z,4.67
2019-03-31T07:59:22.889Z,4.27
2019-03-31T08:01:54.065Z,4.40
2019-03-31T08:04:25.278Z,4.40
2019-03-31T08:06:56.523Z,3.77
2019-03-31T08:09:27.822Z,4.20
2019-03-31T08:11:58.962Z,4.83
2019-03-31T08:14:30.418Z,4.23
2019-03-31T08:17:01.666Z,4.20
2019-03-31T08:19:32.902Z,3.90
2019-03-31T08:22:04.939Z,3.97
2019-03-31T08:24:46.134Z,4.40
2019-03-31T08:27:17.643Z,3.53
2019-03-31T08:29:59.895Z,4.40
2019-03-31T08:32:22.385Z,4.75
2019-03-31T08:34:53.559Z,4.12
2019-03-31T08:37:25.727Z,4.03
2019-03-31T08:39:57.998Z,3.72
2019-03-31T08:42:29.691Z,3.55
2019-03-31T08:45:01.108Z,5.10
2019-03-31T08:47:32.308Z,4.67
2019-03-31T08:50:03.513Z,4.45
2019-03-31T08:52:34.862Z,3.92
2019-03-31T08:55:06.706Z,4.05
2019-03-31T08:57:38.030Z,3.72
2019-03-31T09:00:15.027Z,4.60
2019-03-31T09:02:46.532Z,4.03
2019-03-31T09:05:17.726Z,3.87
2019-03-31T09:07:49.317Z,4.35
2019-03-31T09:10:21.185Z,4.50
2019-03-31T09:12:52.700Z,4.25
2019-03-31T09:15:24.210Z,3.92
2019-03-31T09:17:55.618Z,3.47
2019-03-31T09:20:28.338Z,3.30
2019-03-31T09:22:59.657Z,3.67
2019-03-31T09:25:32.675Z,3.72
2019-03-31T09:28:04.664Z,3.40
2019-03-31T09:30:35.991Z,4.17
2019-03-31T09:33:07.559Z,3.50
2019-03-31T09:35:38.779Z,3.33
2019-03-31T09:38:10.112Z,3.37
2019-03-31T09:40:42.497Z,3.70
2019-03-31T09:43:14.099Z,3.45
2019-03-31T09:45:45.539Z,4.25
2019-03-31T09:48:17.266Z,3.40
2019-03-31T09:50:48.500Z,3.65
2019-03-31T09:53:19.827Z,3.42
2019-03-31T09:55:51.394Z,3.67
2019-03-31T09:58:22.577Z,3.60
2019-03-31T10:00:54.556Z,3.12
2019-03-31T10:03:26.247Z,4.55
2019-03-31T10:06:10.003Z,4.80
2019-03-31T10:08:30.929Z,3.33
2019-03-31T10:11:03.058Z,3.80
2019-03-31T10:13:35.009Z,3.25
2019-03-31T10:16:06.161Z,3.45
2019-03-31T10:18:37.500Z,3.35
2019-03-31T10:21:08.776Z,3.10
2019-03-31T10:23:40.423Z,2.98
2019-03-31T10:26:11.565Z,2.85
2019-03-31T10:28:42.981Z,2.90
2019-03-31T10:31:14.404Z,3.05
2019-03-31T10:33:45.677Z,3.05
2019-03-31T10:36:16.894Z,3.98
2019-03-31T10:38:48.106Z,2.92
2019-03-31T10:41:19.774Z,3.08
2019-03-31T10:43:51.292Z,3.20
2019-03-31T10:46:25.725Z,3.15
2019-03-31T10:49:03.398Z,2.02
2019-03-31T10:51:35.082Z,2.10
2019-03-31T10:54:06.670Z,2.05
2019-03-31T10:56:37.851Z,3.10
2019-03-31T10:59:10.531Z,2.70
2019-03-31T11:01:42.722Z,2.35
2019-03-31T11:04:13.921Z,2.85
2019-03-31T11:06:58.318Z,2.80
2019-03-31T11:09:18.572Z,3.12
2019-03-31T11:11:49.863Z,2.52
2019-03-31T11:14:22.468Z,2.92
2019-03-31T11:16:53.611Z,3.15
2019-03-31T11:19:25.121Z,3.20
2019-03-31T11:22:10.907Z,3.37
2019-03-31T11:24:42.698Z,3.05
2019-03-31T11:27:14.037Z,3.35
2019-03-31T11:29:45.517Z,3.37
2019-03-31T11:32:17.062Z,3.37
2019-03-31T11:34:48.505Z,3.33
2019-03-31T11:37:19.621Z,3.40
2019-03-31T11:39:50.986Z,2.80
2019-03-31T11:42:22.504Z,2.92
2019-03-31T11:45:00.363Z,3.05
2019-03-31T11:47:31.591Z,3.17
2019-03-31T11:50:03.249Z,3.77
2019-03-31T11:52:34.692Z,3.47
2019-03-31T11:55:06.017Z,2.83
2019-03-31T11:57:37.732Z,2.75
2019-03-31T12:00:12.035Z,3.75
2019-03-31T12:02:43.419Z,3.42
2019-03-31T12:05:15.516Z,2.92
2019-03-31T12:07:47.577Z,3.52
2019-03-31T12:10:19.970Z,3.45
2019-03-31T12:12:51.765Z,3.62
2019-03-31T12:15:23.002Z,3.47
2019-03-31T12:17:54.346Z,3.05
2019-03-31T12:20:25.997Z,3.40
2019-03-31T12:22:57.386Z,3.02
2019-03-31T12:25:28.715Z,3.27
2019-03-31T12:28:00.169Z,3.52
2019-03-31T12:30:31.513Z,3.17
2019-03-31T12:33:02.690Z,3.00
2019-03-31T12:35:34.152Z,3.75
2019-03-31T12:38:05.714Z,3.50
2019-03-31T12:40:37.410Z,3.45
2019-03-31T12:43:08.548Z,3.55
2019-03-31T12:45:42.923Z,3.35
2019-03-31T12:48:13.265Z,3.30
2019-03-31T12:50:44.448Z,2.87
2019-03-31T12:53:15.781Z,3.12
2019-03-31T12:55:59.473Z,2.87
2019-03-31T12:58:21.008Z,3.10
2019-03-31T13:00:52.361Z,2.72
2019-03-31T13:03:23.759Z,2.92
2019-03-31T13:05:55.000Z,2.75
2019-03-31T13:08:26.313Z,2.58
2019-03-31T13:10:57.708Z,2.55
2019-03-31T13:13:28.911Z,2.67
2019-03-31T13:16:00.291Z,2.67
2019-03-31T13:18:31.837Z,2.67
2019-03-31T13:21:03.244Z,2.67
2019-03-31T13:23:34.421Z,2.47
2019-03-31T13:26:05.845Z,3.00
2019-03-31T13:28:38.026Z,3.47
2019-03-31T13:31:09.405Z,3.30
2019-03-31T13:33:40.927Z,3.27
2019-03-31T13:36:12.099Z,4.17
2019-03-31T13:38:43.364Z,3.10
2019-03-31T13:41:16.131Z,3.10
2019-03-31T13:43:47.327Z,2.62
2019-03-31T13:46:18.591Z,3.33
2019-03-31T13:48:50.051Z,3.50
2019-03-31T13:51:21.353Z,3.35
2019-03-31T13:53:52.906Z,2.55
2019-03-31T13:56:24.331Z,3.50
2019-03-31T13:58:55.639Z,3.60
2019-03-31T14:01:28.108Z,3.33
2019-03-31T14:04:03.198Z,2.98
2019-03-31T14:06:32.697Z,2.77
2019-03-31T14:09:06.115Z,3.10
2019-03-31T14:11:37.684Z,2.62
2019-03-31T14:14:10.037Z,3.20
2019-03-31T14:16:41.099Z,2.85
2019-03-31T14:19:13.159Z,2.83
2019-03-31T14:21:44.909Z,2.70
2019-03-31T14:24:16.517Z,2.80
2019-03-31T14:26:48.055Z,2.50
2019-03-31T14:29:19.653Z,2.77
2019-03-31T14:31:52.236Z,3.20
2019-03-31T14:34:23.629Z,2.70
2019-03-31T14:36:54.980Z,3.47
2019-03-31T14:39:26.199Z,2.67
2019-03-31T14:41:57.752Z,3.15
2019-03-31T14:44:29.180Z,2.75
2019-03-31T14:47:00.480Z,3.33
2019-03-31T14:49:31.949Z,3.12
2019-03-31T14:52:04.324Z,2.87
2019-03-31T14:54:35.812Z,3.90
2019-03-31T14:57:07.406Z,3.20
2019-03-31T14:59:38.710Z,2.65
2019-03-31T15:02:10.424Z,2.52
2019-03-31T15:04:41.757Z,3.08
2019-03-31T15:07:12.990Z,3.12
2019-03-31T15:09:44.378Z,2.95
2019-03-31T15:12:15.813Z,2.98
2019-03-31T15:14:48.296Z,2.95
2019-03-31T15:17:19.559Z,3.27
2019-03-31T15:19:50.913Z,2.65
2019-03-31T15:22:22.377Z,2.77
2019-03-31T15:24:54.277Z,2.20
2019-03-31T15:27:25.533Z,2.50
2019-03-31T15:29:57.153Z,2.75
2019-03-31T15:32:28.558Z,3.52
2019-03-31T15:34:59.841Z,2.80
2019-03-31T15:37:31.021Z,2.52
2019-03-31T15:40:03.562Z,2.42
2019-03-31T15:42:34.968Z,2.45
2019-03-31T15:45:06.907Z,2.50
2019-03-31T15:47:38.466Z,2.83
2019-03-31T15:50:10.498Z,3.08
2019-03-31T15:52:41.881Z,2.90
2019-03-31T15:55:13.353Z,3.22
2019-03-31T15:57:44.546Z,3.40
2019-03-31T16:00:16.504Z,2.87
2019-03-31T16:02:47.804Z,2.85
2019-03-31T16:05:18.882Z,2.87
2019-03-31T16:07:50.010Z,2.90
2019-03-31T16:10:21.172Z,2.70
2019-03-31T16:12:51.883Z,3.75
2019-03-31T16:15:23.157Z,3.22
2019-03-31T16:17:54.174Z,2.90
2019-03-31T16:20:24.837Z,2.50
2019-03-31T16:22:55.745Z,4.00
2019-03-31T16:25:32.204Z,3.50
2019-03-31T16:28:02.857Z,3.02
2019-03-31T16:30:34.972Z,2.92
2019-03-31T16:33:07.257Z,3.50
2019-03-31T16:35:38.236Z,3.10
2019-03-31T16:38:09.639Z,3.60
2019-03-31T16:40:40.804Z,3.15
2019-03-31T16:43:12.688Z,3.12
2019-03-31T16:45:43.610Z,3.15
2019-03-31T16:48:14.727Z,2.98
2019-03-31T16:50:45.821Z,3.83
2019-03-31T16:53:16.689Z,3.22
2019-03-31T16:55:47.559Z,3.25
2019-03-31T16:58:18.800Z,3.90
2019-03-31T17:00:50.008Z,3.17
2019-03-31T17:03:20.993Z,3.52
2019-03-31T17:05:51.900Z,4.00
2019-03-31T17:08:22.797Z,3.22
2019-03-31T17:10:53.705Z,3.70
2019-03-31T17:13:24.474Z,3.90
2019-03-31T17:15:55.803Z,3.27
2019-03-31T17:18:26.778Z,3.77
2019-03-31T17:20:57.718Z,3.40
2019-03-31T17:23:28.637Z,3.77
2019-03-31T17:25:59.531Z,4.35
2019-03-31T17:28:30.705Z,3.40
2019-03-31T17:31:02.328Z,3.95
2019-03-31T17:33:33.104Z,3.83
2019-03-31T17:36:05.984Z,4.20
2019-03-31T17:38:36.805Z,3.42
2019-03-31T17:41:07.680Z,3.80
2019-03-31T17:43:38.637Z,3.70
2019-03-31T17:46:09.349Z,3.87
2019-03-31T17:48:39.882Z,3.83
2019-03-31T17:51:11.825Z,3.10
2019-03-31T17:53:42.974Z,3.58
2019-03-31T17:56:13.672Z,3.50
2019-03-31T17:58:44.531Z,3.12
2019-03-31T18:01:15.556Z,3.35
2019-03-31T18:03:46.547Z,2.87
2019-03-31T18:06:17.332Z,3.40
2019-03-31T18:08:48.335Z,3.37
2019-03-31T18:11:19.206Z,2.92
2019-03-31T18:13:50.041Z,3.35
2019-03-31T18:16:20.893Z,3.42
2019-03-31T18:18:51.852Z,3.85
2019-03-31T18:21:22.575Z,3.37
2019-03-31T18:23:53.581Z,3.27
2019-03-31T18:26:24.554Z,3.75
2019-03-31T18:28:55.606Z,4.17
2019-03-31T18:31:26.832Z,4.60
2019-03-31T18:33:57.768Z,4.40
2019-03-31T18:36:36.480Z,4.35
2019-03-31T18:39:01.854Z,5.28
2019-03-31T18:41:34.275Z,12.63
2019-03-31T18:44:05.277Z,6.53
2019-03-31T18:46:36.340Z,5.58
2019-03-31T18:49:07.272Z,4.40
2019-03-31T18:51:38.135Z,4.97
2019-03-31T18:54:34.016Z,4.58
2019-03-31T18:57:32.734Z,13.85
2019-03-31T19:00:23.309Z,11.45
2019-03-31T19:03:09.857Z,9.33
2019-03-31T19:05:53.773Z,7.25
2019-03-31T19:08:52.791Z,8.28
2019-03-31T19:11:48.974Z,7.45
2019-03-31T19:14:43.829Z,7.15
2019-03-31T19:17:36.662Z,5.47
2019-03-31T19:20:25.695Z,5.40
2019-03-31T19:23:22.224Z,4.95
2019-03-31T19:26:10.780Z,4.70
2019-03-31T19:29:01.042Z,4.87
2019-03-31T19:31:48.664Z,4.95
2019-03-31T19:34:47.371Z,4.80
2019-03-31T19:37:40.196Z,3.92
2019-03-31T19:40:29.174Z,4.62
2019-03-31T19:43:36.051Z,4.15
2019-03-31T19:46:21.768Z,4.35
2019-03-31T19:49:07.766Z,4.37
2019-03-31T19:52:06.899Z,4.50
2019-03-31T19:54:45.177Z,4.60
2019-03-31T19:57:33.496Z,4.47
2019-03-31T20:00:27.495Z,4.05
2019-03-31T20:03:17.141Z,4.50
2019-03-31T20:06:25.370Z,4.22
2019-03-31T20:09:06.559Z,3.35
2019-03-31T20:11:56.397Z,4.33
2019-03-31T20:14:48.990Z,4.00
2019-03-31T20:17:45.237Z,4.62
2019-03-31T20:20:25.106Z,4.45
2019-03-31T20:23:29.912Z,4.58
2019-03-31T20:26:25.675Z,4.85
2019-03-31T20:29:05.178Z,5.90
2019-03-31T20:31:53.986Z,6.22
2019-03-31T20:34:33.546Z,6.53
2019-03-31T20:37:12.606Z,6.08
2019-03-31T20:39:56.566Z,4.60
2019-03-31T20:42:50.881Z,5.75
2019-03-31T20:45:22.206Z,6.10
2019-03-31T20:47:53.420Z,5.62
2019-03-31T20:50:24.237Z,6.08
2019-03-31T20:52:55.301Z,6.00
2019-03-31T20:55:26.809Z,5.92
2019-03-31T20:57:57.820Z,5.30
2019-03-31T21:00:28.954Z,6.12
2019-03-31T21:02:59.697Z,5.65
2019-03-31T21:05:30.698Z,6.15
2019-03-31T21:08:03.208Z,5.12
2019-03-31T21:10:34.549Z,5.40
2019-03-31T21:13:05.479Z,5.97
2019-03-31T21:15:36.632Z,5.85
2019-03-31T21:18:07.469Z,5.70
2019-03-31T21:20:38.280Z,5.00
2019-03-31T21:23:09.029Z,5.65
2019-03-31T21:25:40.061Z,6.05
2019-03-31T21:28:11.245Z,5.90
2019-03-31T21:30:43.896Z,6.05
2019-03-31T21:33:14.996Z,6.30
2019-03-31T21:35:48.544Z,6.47
2019-03-31T21:38:18.532Z,5.92
2019-03-31T21:40:49.565Z,5.97
2019-03-31T21:43:20.629Z,6.05
2019-03-31T21:45:51.411Z,7.85
2019-03-31T21:48:22.491Z,7.55
2019-03-31T21:50:53.191Z,7.05
2019-03-31T21:53:24.761Z,7.72
2019-03-31T21:55:55.974Z,7.30
2019-03-31T21:58:27.092Z,7.33
2019-03-31T22:00:59.444Z,8.03
2019-03-31T22:03:30.915Z,7.87
2019-03-31T22:06:01.754Z,7.92
2019-03-31T22:08:32.880Z,6.35
2019-03-31T22:11:03.939Z,6.05
2019-03-31T22:13:35.372Z,7.10
2019-03-31T22:16:07.801Z,7.40
2019-03-31T22:18:40.344Z,6.58
2019-03-31T22:21:11.209Z,8.55
2019-03-31T22:23:57.136Z,8.48
2019-03-31T22:26:15.618Z,7.50
2019-03-31T22:28:46.279Z,7.55
2019-03-31T22:31:18.090Z,8.08
2019-03-31T22:33:49.235Z,7.97
2019-03-31T22:36:23.355Z,8.45
2019-03-31T22:38:54.836Z,8.00
2019-03-31T22:41:25.740Z,8.48
2019-03-31T22:43:57.189Z,8.33
2019-03-31T22:46:28.016Z,8.15
2019-03-31T22:48:59.491Z,8.75
2019-03-31T22:51:30.492Z,8.43
2019-03-31T22:54:01.184Z,7.33
2019-03-31T22:56:32.312Z,8.23
2019-03-31T22:59:03.235Z,9.03
2019-03-31T23:01:34.419Z,8.80
2019-03-31T23:04:05.334Z,8.88
2019-03-31T23:06:36.243Z,9.13
2019-03-31T23:09:07.933Z,7.85
2019-03-31T23:11:38.941Z,7.80
2019-03-31T23:14:09.864Z,7.60
2019-03-31T23:16:41.175Z,8.40
2019-03-31T23:19:12.121Z,8.23
2019-03-31T23:21:43.378Z,7.70
2019-03-31T23:24:14.188Z,7.57
2019-03-31T23:26:45.009Z,8.00
2019-03-31T23:29:15.777Z,7.97
2019-03-31T23:31:46.800Z,7.50
2019-03-31T23:34:17.745Z,8.20
2019-03-31T23:36:50.997Z,8.33
2019-03-31T23:39:21.845Z,7.97
2019-03-31T23:41:52.883Z,8.33
2019-03-31T23:44:23.722Z,7.63
2019-03-31T23:46:54.496Z,7.73
2019-03-31T23:49:26.491Z,8.10
2019-03-31T23:51:57.518Z,7.60
2019-03-31T23:54:28.476Z,7.57
2019-03-31T23:56:59.674Z,7.17
2019-03-31T23:59:30.582Z,8.20
